Weather reports worldwide

Advertisment
Klippeneck, Germany (10818): temperature & dewpoint: 20.09.2018 05:00:00 - 26.09.2018 05:00:00 (CEST)Klippeneck, Germany (10818): temperature 5cm & temperature -5cm: 20.09.2018 05:00:00 - 26.09.2018 05:00:00 (CEST)Klippeneck, Germany (10818): temperature -20cm & temperature -100cm: 20.09.2018 05:00:00 - 26.09.2018 05:00:00 (CEST)Klippeneck, Germany (10818): wind speed & gusts: 20.09.2018 05:00:00 - 26.09.2018 05:00:00 (CEST)Klippeneck, Germany (10818): wind direction: 20.09.2018 05:00:00 - 26.09.2018 05:00:00 (CEST)Klippeneck, Germany (10818): visibility: 20.09.2018 05:00:00 - 26.09.2018 05:00:00 (CEST)Klippeneck, Germany (10818): sunshine duration: 20.09.2018 05:00:00 - 26.09.2018 05:00:00 (CEST)Klippeneck, Germany (10818): precipitation: 20.09.2018 05:00:00 - 26.09.2018 05:00:00 (CEST)
Date & Time tt [°C] td [°C] tt 5cm [°C] tt -5cm [°C] tt -20cm [°C] tt -100cm [°C] ff [km/h] ff [kn] fx [km/h] fx [kn] dd vv [km] sd [min] rr [mm]
26.09.2018 05:00:00 3,0 -1,1 1,8 3,4 10,2 15,5 22 12 41 22 E 66 0 0,0
26.09.2018 04:00:00 3,2 -1,5 2,1 3,6 10,5 15,5 26 14 47 25 E 70 0 0,0
26.09.2018 03:00:00 3,2 -2,0 2,2 3,9 10,7 15,5 39 21 54 29 E 70 0 0,0
26.09.2018 02:00:00 3,5 -2,3 2,5 4,2 11,0 15,5 45 24 59 32 E 70 0 0,0
26.09.2018 01:00:00 3,6 -2,3 2,7 4,5 11,2 15,5 42 23 55 30 E 66 0 0,0
26.09.2018 00:00:00 3,9 -1,8 2,9 4,9 11,5 15,6 34 19 48 26 E 70 0 0,0
25.09.2018 23:00:00 4,4 -1,7 3,4 5,4 11,8 15,6 28 15 53 28 E 70 0 0,0
25.09.2018 22:00:00 4,8 -1,5 3,8 6,0 12,0 15,6 36 19 49 27 E 70 0 0,0
25.09.2018 21:00:00 5,5 -1,4 4,4 6,7 12,1 15,6 34 18 49 26 E 70 0 0,0
25.09.2018 20:00:00 5,9 -2,0 4,7 7,8 12,2 15,6 21 11 33 18 E 70 0 0,0
25.09.2018 19:00:00 7,5 -2,5 6,5 9,6 12,1 15,6 18 10 32 17 E 70 58 0,0
25.09.2018 18:00:00 8,9 -1,9 9,3 11,7 11,9 15,6 18 10 32 18 E 41 60 0,0
25.09.2018 17:00:00 9,9 -2,7 11,3 13,1 11,6 15,6 14 7 32 17 E 45 60 0,0
25.09.2018 16:00:00 9,9 -1,8 11,8 13,6 11,3 15,6 18 10 34 18 E 31 60 0,0
25.09.2018 15:00:00 9,5 -1,1 11,7 13,5 11,0 15,6 23 13 37 20 E 13 60 0,0
25.09.2018 14:00:00 9,4 0,1 11,8 13,2 10,7 15,6 21 11 39 21 E 24 60 0,0
25.09.2018 13:00:00 8,5 0,6 11,5 12,2 10,5 15,6 21 11 38 21 E 19 59 0,0
25.09.2018 12:00:00 7,5 1,3 9,7 10,5 10,5 15,7 22 12 40 22 E 22 60 0,0
25.09.2018 11:00:00 6,3 1,5 7,9 8,4 10,5 15,7 23 13 42 23 E 19 60 0,0
25.09.2018 10:00:00 5,2 1,6 6,4 6,3 10,6 15,7 26 14 39 21 E 27 60 0,0
25.09.2018 09:00:00 3,8 1,5 4,2 4,4 10,9 15,7 25 14 35 19 E 21 60 0,0
25.09.2018 08:00:00 2,4 1,2 1,6 3,7 11,1 15,7 25 14 35 19 E 14 11 0,0
25.09.2018 07:00:00 2,3 1,1 1,4 3,9 11,4 15,7 19 10 30 16 E 14 0 0,0
25.09.2018 06:00:00 2,6 1,0 1,6 4,1 11,6 15,7 18 10 26 14 E 21 0 0,0
25.09.2018 05:00:00 2,9 0,8 1,9 4,4 11,9 15,7 13 7 21 11 ENE 34 0 0,0
25.09.2018 04:00:00 3,4 0,9 2,3 4,7 12,2 15,7 15 8 25 13 ENE 41 0 0,0
25.09.2018 03:00:00 3,6 1,4 2,5 5,0 12,5 15,7 13 7 24 13 ENE 31 0 0,0
25.09.2018 02:00:00 4,3 1,0 3,0 5,1 12,9 15,7 13 7 23 13 NE 61 0 0,0
25.09.2018 01:00:00 3,1 -0,3 1,7 5,5 13,2 15,8 12 6 15 8 ENE 70 0 0,0
25.09.2018 00:00:00 4,0 -0,4 2,1 5,9 13,5 15,8 10 5 14 8 ENE 70 0 0,0
24.09.2018 23:00:00 3,7 -0,7 2,2 6,5 13,9 15,8 11 6 14 7 ENE 70 0 0,0
24.09.2018 22:00:00 4,0 -0,5 2,3 7,2 14,1 15,8 11 6 14 7 ENE 70 0 0,0
24.09.2018 21:00:00 4,4 -0,1 2,3 8,2 14,4 15,8 12 7 13 7 ENE 70 0 0,0
24.09.2018 20:00:00 4,7 0,4 3,3 9,5 14,5 15,8 11 6 14 8 ENE 70 0 0,0
24.09.2018 19:00:00 7,1 0,1 5,8 11,6 14,4 15,8 7 4 20 11 NE 70 46 0,0
24.09.2018 18:00:00 8,9 -0,3 9,4 14,2 14,3 15,8 9 5 22 12 NNE 67 60 0,0
24.09.2018 17:00:00 9,1 -0,5 10,8 14,6 14,1 15,8 7 4 20 11 NNE 70 37 0,0
24.09.2018 16:00:00 7,9 -0,8 8,2 16,3 13,8 15,8 9 5 19 10 NE 70 35 0,0
24.09.2018 15:00:00 9,2 0,1 12,1 16,7 13,5 15,8 11 6 21 12 NW 52 42 0,0
24.09.2018 14:00:00 8,2 1,2 10,4 15,9 13,3 15,8 9 5 19 11 NNW 68 45 0,0
24.09.2018 13:00:00 7,0 2,0 9,8 14,4 13,1 15,8 8 4 22 12 N 68 41 0,0
24.09.2018 12:00:00 6,7 1,9 9,6 13,3 13,0 15,8 9 5 21 11 N 70 53 0,0
24.09.2018 11:00:00 5,3 2,7 7,2 11,3 13,1 15,8 9 5 24 13 N 48 40 0,0
24.09.2018 10:00:00 4,9 3,7 7,6 8,8 13,3 15,8 11 6 24 13 N 19 9 0,0
24.09.2018 09:00:00 3,6 2,7 3,8 7,6 13,6 15,8 14 7 30 16 N 16 16 0,0
24.09.2018 08:00:00 3,5 3,1 3,7 7,5 13,8 15,8 14 7 29 16 N 4,7 0 0,0
24.09.2018 07:00:00 3,3 2,8 3,1 7,8 14,1 15,9 14 7 34 18 N 11 0 0,0
24.09.2018 06:00:00 3,4 3,0 3,4 8,1 14,3 15,9 12 6 24 13 N 0,6 0 0,0
24.09.2018 05:00:00 3,7 3,2 3,9 8,9 14,6 15,9 12 6 29 15 NNE 12 0 0,3
24.09.2018 04:00:00 4,6 4,1 4,8 9,4 14,9 15,9 11 6 26 14 N 3,7 0 1,6
24.09.2018 03:00:00 5,7 5,4 5,9 9,8 15,1 15,9 11 6 20 11 WNW 0,1 0 3,2
24.09.2018 02:00:00 6,0 5,5 6,2 10,6 15,4 15,9 9 5 26 14 NNE 4,7 0 0,1
24.09.2018 01:00:00 6,8 6,5 6,9 10,9 15,6 15,9 17 9 40 22 WNW 0,5 0 0,0
24.09.2018 00:00:00 7,1 6,7 7,1 11,3 15,8 15,9 27 15 64 35 WNW 16 0 0,0
23.09.2018 23:00:00 8,4 8,2 8,5 12,1 15,9 15,9 41 22 72 39 WNW 0,1 0 0,0
23.09.2018 22:00:00 10,2 10,0 10,2 13,0 16,0 15,9 41 22 68 37 WNW 0,1 0 1,0
23.09.2018 21:00:00 10,7 10,5 10,7 13,7 16,0 15,9 48 26 97 52 WNW 2,8 0 8,0
23.09.2018 20:00:00 18,2 12,8 17,9 15,8 16,0 15,9 36 20 71 39 WSW 70 0 0,0
23.09.2018 19:00:00 18,1 12,9 17,8 16,2 15,9 15,9 43 23 82 45 WSW 70 10 0,0
23.09.2018 18:00:00 18,5 13,0 18,3 16,4 15,8 15,9 48 26 86 47 WSW 70 3 0,0
23.09.2018 17:00:00 19,0 14,0 19,8 16,8 15,7 15,9 39 21 73 40 WSW 32 6 0,0
23.09.2018 16:00:00 19,0 14,2 19,4 16,3 15,6 15,9 33 18 67 36 WSW 62 2 0,0
23.09.2018 15:00:00 18,5 14,2 18,8 16,7 15,4 15,9 41 22 64 34 WSW 70 1 0,0
23.09.2018 14:00:00 18,0 13,8 18,4 16,1 15,3 15,9 36 19 63 34 WSW 57 3 0,0
23.09.2018 13:00:00 17,7 14,0 17,6 15,7 15,3 15,9 37 20 57 31 WSW 43 2 0,0
23.09.2018 12:00:00 15,2 14,0 14,9 14,3 15,3 15,9 26 14 48 26 WSW 70 0 0,0
23.09.2018 11:00:00 14,7 13,8 14,5 14,1 15,3 15,9 33 18 46 25 WSW 28 0 0,0
23.09.2018 10:00:00 13,6 13,3 13,6 13,4 15,3 15,9 21 12 39 21 SW 8 0 0,5
23.09.2018 09:00:00 13,5 12,0 12,9 13,0 15,4 15,9 23 13 40 21 WSW 7 0 0,0
23.09.2018 08:00:00 13,3 11,1 13,1 12,8 15,5 15,9 20 11 42 23 WSW 70 0 0,0
23.09.2018 07:00:00 12,7 10,2 12,5 12,5 15,6 15,9 28 15 44 24 SW 70 0 0,0
23.09.2018 06:00:00 12,3 8,9 11,9 12,3 15,8 15,9 24 13 47 25 SW 70 0 0,0
23.09.2018 05:00:00 11,0 8,0 10,9 12,2 15,9 15,9 21 11 43 23 SW 70 0 0,0
23.09.2018 04:00:00 10,9 6,8 10,2 12,1 16,1 15,9 25 14 45 24 SW 70 0 0,0
23.09.2018 03:00:00 9,0 7,0 8,3 12,2 16,3 15,9 23 12 41 22 SW 70 0 0,1
23.09.2018 02:00:00 9,2 5,5 9,0 12,3 16,5 15,9 29 16 50 27 WSW 70 0 0,0
23.09.2018 01:00:00 9,6 5,5 8,5 12,8 16,7 15,9 21 11 37 20 SW 70 0 0,1
23.09.2018 00:00:00 9,4 5,7 8,1 13,2 16,8 15,9 22 12 45 24 W 25 0 0,1
22.09.2018 23:00:00 10,7 5,5 9,5 13,8 17,0 15,9 22 12 30 16 WSW 70 0 0,1
22.09.2018 22:00:00 10,7 5,0 9,1 14,4 17,1 15,9 19 10 30 16 WSW 70 0 0,4
22.09.2018 21:00:00 11,5 3,1 11,4 15,3 17,1 15,9 12 7 18 10 W 70 0 0,0
22.09.2018 20:00:00 11,2 3,1 10,8 16,0 17,1 15,9 8 4 14 7 WNW 70 0 0,0
22.09.2018 19:00:00 12,2 1,9 12,2 17,0 17,0 15,9 9 5 20 11 WNW 70 0 0,0
22.09.2018 18:00:00 13,1 1,5 13,7 18,4 16,7 15,9 12 6 22 12 WNW 70 9 0,0
22.09.2018 17:00:00 14,8 2,9 17,2 20,1 16,4 15,9 14 8 29 16 W 48 59 0,0
22.09.2018 16:00:00 14,2 2,9 16,2 20,4 16,1 15,9 14 7 26 14 WSW 66 54 0,0
22.09.2018 15:00:00 14,5 3,1 18,5 20,2 15,8 15,9 12 6 27 14 WSW 27 60 0,0
22.09.2018 14:00:00 12,8 2,4 16,5 18,9 15,6 15,9 14 8 28 15 W 34 54 0,0
22.09.2018 13:00:00 12,6 2,7 16,6 16,8 15,5 15,9 14 8 22 12 W 55 20 0,0
22.09.2018 12:00:00 10,5 4,0 13,3 15,4 15,5 15,9 8 4 21 11 SW 70 12 0,0
22.09.2018 11:00:00 9,6 4,3 11,9 14,2 15,6 15,9 8 5 14 8 SW 50 37 0,0
22.09.2018 10:00:00 9,0 4,5 10,5 12,3 15,7 15,9 7 4 14 8 W 68 25 0,0
22.09.2018 09:00:00 7,6 4,2 8,3 11,0 15,9 15,9 9 5 16 9 SW 70 32 0,0
22.09.2018 08:00:00 6,6 3,7 5,5 10,5 16,2 15,9 9 5 19 11 SSW 70 0 0,0
22.09.2018 07:00:00 6,7 4,0 5,9 10,8 16,4 15,9 13 7 19 11 SSW 70 0 0,0
22.09.2018 06:00:00 6,7 4,2 5,5 11,1 16,6 15,9 9 5 20 11 SW 70 0 0,0
22.09.2018 05:00:00 7,2 4,5 6,5 11,6 16,9 15,9 14 7 22 12 WSW 70 0 0,0
22.09.2018 04:00:00 7,0 4,7 6,1 11,8 17,1 15,9 11 6 23 13 WSW 62 0 0,0
22.09.2018 03:00:00 7,4 4,6 6,8 12,2 17,4 15,9 12 6 26 14 W 70 0 0,0
22.09.2018 02:00:00 7,5 4,8 7,0 12,5 17,6 15,9 16 9 36 20 WNW 67 0 0,0
22.09.2018 01:00:00 7,4 5,1 6,8 12,9 17,9 15,9 18 10 29 16 WNW 64 0 0,0
22.09.2018 00:00:00 7,6 5,1 7,0 13,3 18,2 15,9 18 10 32 17 W 66 0 0,0
21.09.2018 23:00:00 7,4 5,5 6,7 13,9 18,4 15,9 22 12 32 18 WNW 54 0 0,0
21.09.2018 22:00:00 7,7 5,5 7,2 14,7 18,6 15,9 19 10 39 21 WNW 70 0 0,0
21.09.2018 21:00:00 8,7 5,7 8,7 15,8 18,7 15,9 21 11 49 26 WNW 70 0 0,0
21.09.2018 20:00:00 9,7 8,6 9,8 16,9 18,8 15,9 29 16 51 27 WNW 39 0 0,0
21.09.2018 19:00:00 12,4 10,0 12,7 17,9 18,8 15,9 32 17 63 34 WNW 70 0 0,0
21.09.2018 18:00:00 17,9 8,2 17,7 18,7 18,8 15,8 34 19 68 37 W 70 0 0,0
21.09.2018 17:00:00 18,4 11,9 18,5 19,4 18,7 15,8 26 14 51 28 WSW 47 0 0,0
21.09.2018 16:00:00 18,9 11,3 19,1 19,6 18,6 15,8 31 17 54 29 WSW 41 0 0,1
21.09.2018 15:00:00 19,4 12,7 18,2 21,0 18,4 15,8 23 12 45 25 WSW 30 6 0,0
21.09.2018 14:00:00 21,4 11,9 22,6 21,6 18,2 15,8 26 14 47 25 SW 32 3 0,0
21.09.2018 13:00:00 21,1 11,7 22,4 21,6 18,0 15,8 28 15 48 26 SW 52 34 0,0
21.09.2018 12:00:00 21,8 11,7 25,0 20,5 17,9 15,8 23 12 46 25 SW 22 55 0,0
21.09.2018 11:00:00 20,4 11,0 22,4 18,5 17,9 15,8 25 14 44 24 SW 30 32 0,0
21.09.2018 10:00:00 20,0 10,3 21,9 17,6 18,0 15,8 23 13 41 22 SSW 23 60 0,0
21.09.2018 09:00:00 18,7 10,1 19,4 15,9 18,1 15,8 24 13 38 21 SW 31 60 0,0
21.09.2018 08:00:00 17,6 11,3 16,3 15,4 18,2 15,8 21 11 36 20 SW 49 18 0,0
21.09.2018 07:00:00 17,6 11,7 16,1 15,6 18,4 15,8 21 11 33 18 SSW 33 0 0,0
21.09.2018 06:00:00 18,1 11,3 16,5 15,7 18,6 15,8 20 11 32 18 SSW 41 0 0,0
21.09.2018 05:00:00 18,7 10,9 16,9 15,9 18,8 15,8 17 9 26 14 SSW 41 0 0,0
21.09.2018 04:00:00 18,3 10,8 16,6 16,0 19,0 15,8 15 8 24 13 SSW 42 0 0,0
21.09.2018 03:00:00 17,8 11,4 16,0 16,1 19,2 15,8 10 6 19 10 S 35 0 0,0
21.09.2018 02:00:00 16,3 11,2 14,1 16,5 19,4 15,8 11 6 19 10 SE 36 0 0,0
21.09.2018 01:00:00 18,2 11,3 16,2 17,0 19,6 15,8 10 6 20 11 S 41 0 0,0
21.09.2018 00:00:00 18,5 10,9 16,8 17,5 19,8 15,8 12 6 18 10 SSW 46 0 0,0
20.09.2018 23:00:00 19,0 11,2 16,6 18,0 20,0 15,8 10 5 19 10 S 46 0 0,0
20.09.2018 22:00:00 18,9 10,7 16,6 18,5 20,1 15,8 10 5 14 8 S 55 0 0,0
20.09.2018 21:00:00 19,5 11,3 17,3 19,5 20,1 15,8 9 5 18 10 S 51 0 0,0
20.09.2018 20:00:00 20,0 10,7 17,8 20,6 20,1 15,8 11 6 14 8 SSE 53 1 0,0
20.09.2018 19:00:00 22,0 8,8 20,0 22,5 19,9 15,8 7 4 19 11 SW 50 60 0,0
20.09.2018 18:00:00 24,3 9,2 24,9 24,4 19,5 15,8 13 7 21 12 WSW 66 60 0,0
20.09.2018 17:00:00 25,2 10,2 28,0 25,4 19,1 15,8 8 4 17 9 W 51 45 0,0
20.09.2018 16:00:00 23,6 9,7 25,6 26,2 18,7 15,8 8 5 27 15 SW 70 52 0,0
20.09.2018 15:00:00 24,7 9,9 28,4 26,2 18,2 15,8 16 8 25 13 W 30 47 0,0
20.09.2018 14:00:00 24,1 11,3 29,7 26,2 17,7 15,8 7 4 20 11 S 41 59 0,0
20.09.2018 13:00:00 24,5 12,2 29,8 24,4 17,4 15,8 10 5 22 12 WSW 23 60 0,0
20.09.2018 12:00:00 22,6 11,9 26,6 21,8 17,2 15,8 10 6 17 9 WSW 34 60 0,0
20.09.2018 11:00:00 21,4 12,6 24,6 19,4 17,2 15,8 8 4 11 6 SW 37 60 0,0
20.09.2018 10:00:00 20,6 11,8 22,3 16,9 17,3 15,8 9 5 10 5 S 43 60 0,0
20.09.2018 09:00:00 18,9 11,6 20,2 15,2 17,4 15,8 9 5 10 6 S 37 60 0,0
20.09.2018 08:00:00 17,6 11,7 14,9 14,0 17,6 15,8 7 4 9 5 SSW 35 16 0,0
20.09.2018 07:00:00 16,4 11,6 11,4 14,1 17,8 15,8 3 2 7 4 SSW 36 0 0,0
20.09.2018 06:00:00 16,9 11,7 11,1 14,5 18,0 15,8 3 1 8 5 WSW 39 0 0,0
20.09.2018 05:00:00 17,1 11,8 12,8 15,0 18,2 15,8 8 4 15 8 WSW 35 0 0,0

tt = temperature
td = dewpoint
tt 5cm = temperature 5cm
tt -5cm = temperature -5cm
tt -20cm = temperature -20cm
tt -100cm = temperature -100cm
ff = wind speed
fx = gusts
dd = wind direction
vv = visibility
sd = sunshine duration
rr = precipitation

Next stations